createdAt,value
2024-02-24T00:00:23.177Z,92.85
2024-02-24T00:01:23.336Z,92.64
2024-02-24T00:02:23.231Z,92.64
2024-02-24T00:03:23.245Z,92.95
2024-02-24T00:04:23.204Z,93.37
2024-02-24T00:05:23.154Z,93.68
2024-02-24T00:06:23.200Z,93.79
2024-02-24T00:07:23.092Z,93.89
2024-02-24T00:08:23.134Z,93.79
2024-02-24T00:09:23.146Z,93.79
2024-02-24T00:10:23.055Z,93.79
2024-02-24T00:11:23.190Z,93.79
2024-02-24T00:12:23.077Z,93.79
2024-02-24T00:13:23.030Z,93.79
2024-02-24T00:14:23.050Z,93.89
2024-02-24T00:15:23.002Z,93.79
2024-02-24T00:16:22.971Z,93.79
2024-02-24T00:17:23.095Z,94.14
2024-02-24T00:18:23.005Z,94.35
2024-02-24T00:19:23.061Z,94.56
2024-02-24T00:20:22.966Z,94.76
2024-02-24T00:21:22.910Z,95.08
2024-02-24T00:22:22.922Z,95.29
2024-02-24T00:23:22.900Z,95.50
2024-02-24T00:24:22.868Z,95.81
2024-02-24T00:25:22.861Z,95.81
2024-02-24T00:26:22.867Z,94.56
2024-02-24T00:27:22.956Z,93.73
2024-02-24T00:28:22.812Z,93.10
2024-02-24T00:29:22.842Z,93.05
2024-02-24T00:30:22.798Z,92.95
2024-02-24T00:31:22.789Z,92.64
2024-02-24T00:32:22.780Z,91.81
2024-02-24T00:33:22.840Z,91.28
2024-02-24T00:34:22.786Z,91.60
2024-02-24T00:35:22.748Z,91.91
2024-02-24T00:36:22.740Z,91.91
2024-02-24T00:37:22.706Z,92.12
2024-02-24T00:38:22.833Z,92.12
2024-02-24T00:39:22.712Z,92.02
2024-02-24T00:40:22.645Z,92.02
2024-02-24T00:41:22.671Z,92.02
2024-02-24T00:42:22.662Z,91.81
2024-02-24T00:43:22.624Z,91.91
2024-02-24T00:44:22.622Z,91.39
2024-02-24T00:45:22.603Z,91.25
2024-02-24T00:46:22.578Z,91.56
2024-02-24T00:47:22.621Z,91.56
2024-02-24T00:48:22.558Z,90.83
2024-02-24T00:49:22.606Z,90.72
2024-02-24T00:50:22.588Z,90.62
2024-02-24T00:51:22.525Z,90.62
2024-02-24T00:52:22.518Z,90.41
2024-02-24T00:53:22.528Z,90.41
2024-02-24T00:54:22.469Z,90.52
2024-02-24T00:55:22.503Z,91.04
2024-02-24T00:56:22.586Z,91.25
2024-02-24T00:57:22.484Z,91.56
2024-02-24T00:58:22.427Z,92.08
2024-02-24T00:59:22.473Z,91.97
2024-02-24T01:00:22.412Z,91.81
2024-02-24T01:01:22.480Z,90.97
2024-02-24T01:02:22.429Z,90.83
2024-02-24T01:03:22.502Z,91.04
2024-02-24T01:04:25.596Z,91.25
2024-02-24T01:05:22.367Z,91.25
2024-02-24T01:06:22.316Z,91.14
2024-02-24T01:07:22.340Z,90.93
2024-02-24T01:08:22.400Z,90.83
2024-02-24T01:09:22.304Z,91.04
2024-02-24T01:10:22.320Z,91.14
2024-02-24T01:11:22.323Z,91.35
2024-02-24T01:12:22.306Z,91.77
2024-02-24T01:13:22.257Z,92.08
2024-02-24T01:14:22.251Z,92.22
2024-02-24T01:15:22.215Z,92.54
2024-02-24T01:16:22.210Z,92.74
2024-02-24T01:17:22.226Z,92.54
2024-02-24T01:18:22.302Z,92.74
2024-02-24T01:19:22.195Z,92.43
2024-02-24T01:20:22.278Z,92.43
2024-02-24T01:21:22.119Z,92.33
2024-02-24T01:22:22.111Z,92.12
2024-02-24T01:23:22.145Z,92.43
2024-02-24T01:24:22.076Z,92.64
2024-02-24T01:25:22.146Z,92.95
2024-02-24T01:26:22.085Z,93.05
2024-02-24T01:27:22.041Z,92.74
2024-02-24T01:29:49.927Z,92.74
2024-02-24T01:29:55.299Z,92.95
2024-02-24T01:30:55.309Z,93.58
2024-02-24T01:31:55.224Z,93.89
2024-02-24T01:32:55.366Z,94.04
2024-02-24T01:33:55.444Z,94.04
2024-02-24T01:34:55.210Z,94.14
2024-02-24T01:35:55.238Z,94.24
2024-02-24T01:36:55.328Z,94.24
2024-02-24T01:37:55.171Z,93.73
2024-02-24T01:38:55.173Z,93.52
2024-02-24T01:39:55.107Z,93.52
2024-02-24T01:40:55.123Z,92.68
2024-02-24T01:41:55.166Z,91.91
2024-02-24T01:42:55.188Z,91.91
2024-02-24T01:43:55.124Z,92.43
2024-02-24T01:44:55.156Z,92.74
2024-02-24T01:45:55.033Z,93.48
2024-02-24T01:46:55.021Z,93.93
2024-02-24T01:47:55.320Z,94.35
2024-02-24T01:48:55.284Z,94.45
2024-02-24T01:49:54.974Z,94.76
2024-02-24T01:50:55.055Z,94.98
2024-02-24T01:51:54.998Z,95.08
2024-02-24T01:52:54.982Z,95.08
2024-02-24T01:53:54.947Z,95.23
2024-02-24T01:54:54.972Z,95.33
2024-02-24T01:55:54.923Z,95.54
2024-02-24T01:56:54.892Z,95.54
2024-02-24T01:57:55.006Z,95.85
2024-02-24T01:58:54.875Z,95.95
2024-02-24T01:59:54.899Z,96.16
2024-02-24T02:00:54.875Z,96.16
2024-02-24T02:01:54.897Z,96.06
2024-02-24T02:02:54.838Z,95.95
2024-02-24T02:03:54.802Z,96.06
2024-02-24T02:04:54.868Z,96.06
2024-02-24T02:05:54.891Z,96.06
2024-02-24T02:06:54.806Z,96.06
2024-02-24T02:07:54.869Z,96.06
2024-02-24T02:08:54.780Z,96.06
2024-02-24T02:09:54.741Z,96.06
2024-02-24T02:10:54.785Z,96.06
2024-02-24T02:12:02.702Z,96.06
2024-02-24T02:12:54.763Z,96.06
2024-02-24T02:13:54.682Z,95.23
2024-02-24T02:14:54.675Z,94.39
2024-02-24T02:15:54.663Z,93.87
2024-02-24T02:16:55.683Z,94.08
2024-02-24T02:17:54.750Z,94.18
2024-02-24T02:18:54.678Z,94.39
2024-02-24T02:19:54.609Z,94.49
2024-02-24T02:20:54.641Z,94.49
2024-02-24T02:21:54.570Z,94.70
2024-02-24T02:22:54.667Z,94.70
2024-02-24T02:23:54.564Z,94.70
2024-02-24T02:24:54.538Z,94.81
2024-02-24T02:25:54.521Z,94.81
2024-02-24T02:26:54.537Z,94.81
2024-02-24T02:27:54.595Z,94.81
2024-02-24T02:28:54.473Z,94.81
2024-02-24T02:29:54.476Z,95.02
2024-02-24T02:30:54.463Z,95.06
2024-02-24T02:31:54.452Z,95.17
2024-02-24T02:32:54.513Z,95.27
2024-02-24T02:33:54.571Z,95.68
2024-02-24T02:34:54.430Z,95.68
2024-02-24T02:35:54.388Z,95.68
2024-02-24T02:36:54.472Z,95.58
2024-02-24T02:37:54.373Z,95.62
2024-02-24T02:38:54.323Z,95.62
2024-02-24T02:39:54.380Z,95.52
2024-02-24T02:40:54.326Z,95.62
2024-02-24T02:41:54.315Z,95.62
2024-02-24T02:42:54.312Z,95.62
2024-02-24T02:43:54.282Z,95.73
2024-02-24T02:44:54.362Z,95.83
2024-02-24T02:45:54.256Z,95.83
2024-02-24T02:46:54.237Z,95.68
2024-02-24T02:47:54.293Z,95.48
2024-02-24T02:48:54.424Z,95.58
2024-02-24T02:49:54.213Z,95.68
2024-02-24T02:50:54.227Z,95.68
2024-02-24T02:51:54.194Z,95.79
2024-02-24T02:52:54.201Z,96.00
2024-02-24T02:53:54.284Z,96.15
2024-02-24T02:54:54.153Z,96.15
2024-02-24T02:55:54.147Z,96.15
2024-02-24T02:56:54.153Z,96.15
2024-02-24T02:57:54.103Z,96.04
2024-02-24T02:58:54.085Z,96.00
2024-02-24T02:59:54.140Z,96.00
2024-02-24T03:00:54.113Z,95.79
2024-02-24T03:01:54.057Z,95.68
2024-02-24T03:02:54.147Z,95.58
2024-02-24T03:03:54.062Z,95.58
2024-02-24T03:04:54.006Z,95.58
2024-02-24T03:05:54.106Z,95.58
2024-02-24T03:06:54.031Z,95.58
2024-02-24T03:07:53.975Z,95.58
2024-02-24T03:08:56.961Z,95.52
2024-02-24T03:09:53.949Z,95.52
2024-02-24T03:10:53.979Z,95.37
2024-02-24T03:11:54.072Z,95.42
2024-02-24T03:12:53.993Z,95.42
2024-02-24T03:13:53.964Z,95.42
2024-02-24T03:14:53.885Z,95.42
2024-02-24T03:15:53.955Z,95.52
2024-02-24T03:16:53.917Z,95.62
2024-02-24T03:17:53.919Z,95.31
2024-02-24T03:18:53.945Z,94.85
2024-02-24T03:19:53.830Z,94.64
2024-02-24T03:20:53.876Z,94.54
2024-02-24T03:21:53.964Z,94.43
2024-02-24T03:22:53.791Z,94.43
2024-02-24T03:23:53.811Z,94.43
2024-02-24T03:24:53.734Z,94.75
2024-02-24T03:25:53.773Z,94.90
2024-02-24T03:26:53.729Z,95.10
2024-02-24T03:27:53.870Z,95.31
2024-02-24T03:28:53.767Z,95.31
2024-02-24T03:29:54.708Z,95.31
2024-02-24T03:30:53.664Z,95.21
2024-02-24T03:31:53.675Z,95.10
2024-02-24T03:32:53.668Z,95.10
2024-02-24T03:33:53.707Z,95.00
2024-02-24T03:34:53.630Z,95.00
2024-02-24T03:35:53.763Z,95.00
2024-02-24T03:36:53.610Z,95.00
2024-02-24T03:37:53.592Z,95.00
2024-02-24T03:38:53.572Z,94.90
2024-02-24T03:39:53.560Z,94.79
2024-02-24T03:40:53.545Z,94.69
2024-02-24T03:41:53.596Z,94.90
2024-02-24T03:42:53.529Z,95.00
2024-02-24T03:43:53.509Z,95.10
2024-02-24T03:44:53.530Z,95.21
2024-02-24T03:45:53.469Z,95.36
2024-02-24T03:46:53.471Z,95.36
2024-02-24T03:47:53.558Z,95.25
2024-02-24T03:48:53.553Z,95.21
2024-02-24T03:49:53.429Z,95.15
2024-02-24T03:50:53.436Z,95.25
2024-02-24T03:51:53.442Z,95.36
2024-02-24T03:52:53.391Z,95.36
2024-02-24T03:53:53.439Z,95.25
2024-02-24T03:54:53.397Z,95.15
2024-02-24T03:55:53.341Z,95.04
2024-02-24T03:56:53.384Z,95.04
2024-02-24T03:57:53.316Z,95.04
2024-02-24T03:58:53.320Z,94.94
2024-02-24T03:59:53.390Z,94.94
2024-02-24T04:00:53.395Z,95.25
2024-02-24T04:01:53.309Z,95.40
2024-02-24T04:02:53.272Z,95.50
2024-02-24T04:03:53.278Z,95.50
2024-02-24T04:04:53.283Z,95.61
2024-02-24T04:05:53.453Z,95.65
2024-02-24T04:06:53.284Z,95.86
2024-02-24T04:07:53.231Z,95.97
2024-02-24T04:08:53.324Z,96.28
2024-02-24T04:09:53.164Z,96.49
2024-02-24T04:10:53.166Z,96.80
2024-02-24T04:11:53.189Z,96.91
2024-02-24T04:12:53.162Z,97.01
2024-02-24T04:13:53.112Z,97.22
2024-02-24T04:14:53.158Z,97.11
2024-02-24T04:15:53.088Z,96.80
2024-02-24T04:16:53.062Z,96.59
2024-02-24T04:17:53.149Z,96.59
2024-02-24T04:18:53.172Z,96.55
2024-02-24T04:19:53.067Z,96.55
2024-02-24T04:20:53.074Z,96.44
2024-02-24T04:21:53.020Z,96.34
2024-02-24T04:22:53.044Z,96.13
2024-02-24T04:23:53.089Z,96.13
2024-02-24T04:24:52.969Z,96.03
2024-02-24T04:25:52.976Z,95.92
2024-02-24T04:26:53.015Z,95.82
2024-02-24T04:27:52.929Z,95.92
2024-02-24T04:28:52.945Z,95.92
2024-02-24T04:29:53.014Z,96.03
2024-02-24T04:30:52.886Z,95.92
2024-02-24T04:31:52.888Z,95.72
2024-02-24T04:32:52.944Z,95.61
2024-02-24T04:33:52.960Z,95.50
2024-02-24T04:34:52.894Z,95.29
2024-02-24T04:35:52.916Z,95.04
2024-02-24T04:36:52.831Z,94.94
2024-02-24T04:37:52.808Z,94.84
2024-02-24T04:38:52.835Z,94.63
2024-02-24T04:39:52.782Z,94.73
2024-02-24T04:40:52.786Z,94.84
2024-02-24T04:41:52.802Z,94.63
2024-02-24T04:42:52.736Z,94.42
2024-02-24T04:43:52.720Z,94.21
2024-02-24T04:44:52.760Z,94.21
2024-02-24T04:45:52.693Z,94.00
2024-02-24T04:46:52.771Z,93.79
2024-02-24T04:47:52.837Z,93.79
2024-02-24T04:48:52.718Z,93.90
2024-02-24T04:49:52.674Z,94.00
2024-02-24T04:50:52.787Z,94.21
2024-02-24T04:51:52.613Z,94.42
2024-02-24T04:52:52.624Z,94.42
2024-02-24T04:53:52.681Z,94.52
2024-02-24T04:54:52.564Z,94.31
2024-02-24T04:55:52.709Z,94.10
2024-02-24T04:56:52.635Z,94.00
2024-02-24T04:57:52.556Z,93.90
2024-02-24T04:58:52.547Z,93.90
2024-02-24T04:59:52.616Z,94.10
2024-02-24T05:00:52.614Z,94.42
2024-02-24T05:01:52.491Z,94.42
2024-02-24T05:02:52.577Z,94.42
2024-02-24T05:03:52.595Z,94.21
2024-02-24T05:04:52.590Z,94.10
2024-02-24T05:05:52.563Z,93.94
2024-02-24T05:06:52.567Z,94.04
2024-02-24T05:07:52.562Z,94.15
2024-02-24T05:08:52.549Z,94.25
2024-02-24T05:09:52.465Z,94.25
2024-02-24T05:10:52.530Z,94.25
2024-02-24T05:11:52.486Z,94.71
2024-02-24T05:12:52.365Z,95.13
2024-02-24T05:13:52.353Z,95.44
2024-02-24T05:14:52.371Z,95.55
2024-02-24T05:15:52.311Z,95.44
2024-02-24T05:16:52.321Z,95.44
2024-02-24T05:17:52.415Z,95.34
2024-02-24T05:18:52.394Z,95.55
2024-02-24T05:19:52.250Z,95.55
2024-02-24T05:20:52.268Z,95.55
2024-02-24T05:21:52.249Z,95.23
2024-02-24T05:22:52.194Z,95.09
2024-02-24T05:23:52.256Z,94.98
2024-02-24T05:24:52.271Z,94.88
2024-02-24T05:25:52.176Z,94.67
2024-02-24T05:26:52.194Z,94.57
2024-02-24T05:27:52.197Z,94.57
2024-02-24T05:28:52.148Z,94.71
2024-02-24T05:29:52.191Z,94.71
2024-02-24T05:30:52.122Z,94.61
2024-02-24T05:31:52.114Z,94.92
2024-02-24T05:32:54.003Z,95.09
2024-02-24T05:33:52.302Z,94.88
2024-02-24T05:34:52.092Z,94.46
2024-02-24T05:35:52.102Z,94.25
2024-02-24T05:36:52.049Z,93.94
2024-02-24T05:37:52.717Z,93.94
2024-02-24T05:38:52.138Z,94.25
2024-02-24T05:39:52.001Z,94.61
2024-02-24T05:40:51.973Z,94.88
2024-02-24T05:41:52.002Z,94.88
2024-02-24T05:42:51.975Z,94.67
2024-02-24T05:43:51.941Z,94.46
2024-02-24T05:44:51.967Z,94.35
2024-02-24T05:45:51.935Z,94.25
2024-02-24T05:46:51.900Z,94.25
2024-02-24T05:47:52.086Z,94.15
2024-02-24T05:48:51.978Z,94.04
2024-02-24T05:49:51.885Z,93.94
2024-02-24T05:50:51.867Z,93.73
2024-02-24T05:51:51.884Z,93.73
2024-02-24T05:52:51.809Z,93.63
2024-02-24T05:53:51.868Z,93.41
2024-02-24T05:54:51.800Z,93.52
2024-02-24T05:55:51.828Z,93.63
2024-02-24T05:56:51.909Z,93.73
2024-02-24T05:57:51.752Z,93.69
2024-02-24T05:58:51.730Z,93.52
2024-02-24T05:59:51.780Z,93.73
2024-02-24T06:00:51.706Z,93.73
2024-02-24T06:01:51.750Z,93.84
2024-02-24T06:02:51.729Z,94.04
2024-02-24T06:03:51.698Z,94.04
2024-02-24T06:04:51.677Z,94.25
2024-02-24T06:05:51.740Z,94.46
2024-02-24T06:06:51.737Z,94.46
2024-02-24T06:07:52.878Z,94.35
2024-02-24T06:08:51.674Z,94.15
2024-02-24T06:09:51.602Z,93.98
2024-02-24T06:10:51.629Z,94.29
2024-02-24T06:11:51.707Z,94.61
2024-02-24T06:12:51.664Z,94.82
2024-02-24T06:13:51.522Z,94.71
2024-02-24T06:14:51.613Z,94.40
2024-02-24T06:15:51.539Z,94.29
2024-02-24T06:16:51.510Z,94.19
2024-02-24T06:17:51.601Z,94.25
2024-02-24T06:18:51.570Z,94.25
2024-02-24T06:19:51.481Z,93.94
2024-02-24T06:20:51.524Z,93.84
2024-02-24T06:21:51.455Z,93.84
2024-02-24T06:22:51.435Z,93.84
2024-02-24T06:23:51.594Z,93.84
2024-02-24T06:24:51.413Z,93.94
2024-02-24T06:25:51.377Z,93.94
2024-02-24T06:26:51.558Z,93.94
2024-02-24T06:27:51.371Z,93.94
2024-02-24T06:28:51.395Z,93.88
2024-02-24T06:29:51.464Z,93.98
2024-02-24T06:30:51.326Z,94.04
2024-02-24T06:31:51.307Z,93.94
2024-02-24T06:32:51.427Z,93.73
2024-02-24T06:33:51.404Z,93.52
2024-02-24T06:34:51.372Z,93.27
2024-02-24T06:35:51.337Z,93.16
2024-02-24T06:36:51.265Z,93.06
2024-02-24T06:37:51.252Z,92.96
2024-02-24T06:38:51.311Z,93.06
2024-02-24T06:39:51.197Z,92.96
2024-02-24T06:40:51.285Z,92.85
2024-02-24T06:41:51.207Z,92.79
2024-02-24T06:42:51.199Z,92.79
2024-02-24T06:43:51.186Z,92.90
2024-02-24T06:44:51.358Z,93.10
2024-02-24T06:45:51.149Z,93.00
2024-02-24T06:46:53.626Z,92.75
2024-02-24T06:47:51.156Z,92.75
2024-02-24T06:48:51.199Z,92.65
2024-02-24T06:49:51.137Z,92.54
2024-02-24T06:50:51.185Z,92.44
2024-02-24T06:51:51.039Z,92.44
2024-02-24T06:52:51.092Z,92.33
2024-02-24T06:53:51.078Z,92.44
2024-02-24T06:54:51.045Z,92.33
2024-02-24T06:55:51.007Z,92.22
2024-02-24T06:56:51.135Z,92.22
2024-02-24T06:57:50.965Z,92.33
2024-02-24T06:58:50.963Z,92.33
2024-02-24T06:59:51.083Z,92.44
2024-02-24T07:00:51.028Z,92.54
2024-02-24T07:01:50.950Z,92.69
2024-02-24T07:02:51.061Z,92.65
2024-02-24T07:03:51.063Z,92.65
2024-02-24T07:04:50.908Z,92.44
2024-02-24T07:05:50.968Z,92.33
2024-02-24T07:06:50.918Z,92.22
2024-02-24T07:07:50.934Z,92.22
2024-02-24T07:08:50.903Z,92.12
2024-02-24T07:09:50.828Z,91.81
2024-02-24T07:10:50.815Z,91.50
2024-02-24T07:11:50.904Z,91.35
2024-02-24T07:12:50.776Z,91.46
2024-02-24T07:13:50.805Z,91.56
2024-02-24T07:14:50.847Z,91.66
2024-02-24T07:15:50.748Z,91.56
2024-02-24T07:16:50.726Z,91.14
2024-02-24T07:17:50.822Z,90.93
2024-02-24T07:18:50.811Z,90.52
2024-02-24T07:19:50.675Z,90.37
2024-02-24T07:20:50.775Z,90.16
2024-02-24T07:21:50.645Z,90.26
2024-02-24T07:22:50.655Z,90.37
2024-02-24T07:23:50.782Z,89.95
2024-02-24T07:24:50.675Z,89.64
2024-02-24T07:25:50.627Z,89.54
2024-02-24T07:26:51.182Z,89.54
2024-02-24T07:27:50.588Z,89.22
2024-02-24T07:28:50.581Z,89.12
2024-02-24T07:29:50.697Z,89.12
2024-02-24T07:30:50.605Z,89.01
2024-02-24T07:31:50.518Z,88.87
2024-02-24T07:32:50.614Z,88.98
2024-02-24T07:33:50.797Z,88.76
2024-02-24T07:34:50.564Z,88.76
2024-02-24T07:35:50.585Z,88.66
2024-02-24T07:36:50.482Z,88.66
2024-02-24T07:37:50.446Z,88.24
2024-02-24T07:38:50.496Z,87.83
2024-02-24T07:39:50.469Z,87.73
2024-02-24T07:40:50.425Z,87.89
2024-02-24T07:41:50.401Z,88.20
2024-02-24T07:42:50.429Z,88.31
2024-02-24T07:43:50.414Z,88.83
2024-02-24T07:44:50.416Z,89.14
2024-02-24T07:45:50.357Z,88.58
2024-02-24T07:46:50.349Z,88.79
2024-02-24T07:47:50.344Z,89.31
2024-02-24T07:48:50.318Z,88.54
2024-02-24T07:49:50.355Z,87.71
2024-02-24T07:50:50.411Z,87.29
2024-02-24T07:51:50.257Z,87.08
2024-02-24T07:52:50.272Z,87.08
2024-02-24T07:53:50.269Z,86.63
2024-02-24T07:54:50.246Z,86.32
2024-02-24T07:55:50.311Z,86.42
2024-02-24T07:56:50.288Z,86.94
2024-02-24T07:57:50.192Z,87.73
2024-02-24T07:58:50.231Z,86.27
2024-02-24T07:59:50.230Z,85.34
2024-02-24T08:00:52.999Z,84.99
2024-02-24T08:01:50.177Z,84.37
2024-02-24T08:02:50.161Z,84.68
2024-02-24T08:03:50.176Z,84.37
2024-02-24T08:04:50.160Z,83.74
2024-02-24T08:05:50.236Z,83.74
2024-02-24T08:06:50.122Z,83.08
2024-02-24T08:07:50.054Z,83.81
2024-02-24T08:08:50.199Z,83.70
2024-02-24T08:09:50.068Z,83.39
2024-02-24T08:10:50.029Z,83.25
2024-02-24T08:11:50.076Z,82.01
2024-02-24T08:12:50.132Z,82.84
2024-02-24T08:13:49.966Z,82.01
2024-02-24T08:14:50.006Z,82.21
2024-02-24T08:15:49.953Z,82.07
2024-02-24T08:16:49.988Z,81.97
2024-02-24T08:17:49.986Z,81.56
2024-02-24T08:18:50.049Z,81.56
2024-02-24T08:19:50.008Z,82.55
2024-02-24T08:20:49.943Z,81.93
2024-02-24T08:21:49.885Z,82.76
2024-02-24T08:22:49.868Z,80.99
2024-02-24T08:23:49.935Z,79.65
2024-02-24T08:24:49.849Z,79.75
2024-02-24T08:25:49.857Z,79.13
2024-02-24T08:26:49.871Z,79.24
2024-02-24T08:27:49.830Z,79.24
2024-02-24T08:28:49.783Z,79.27
2024-02-24T08:29:49.870Z,78.96
2024-02-24T08:30:49.759Z,78.89
2024-02-24T08:31:49.746Z,80.00
2024-02-24T08:32:49.950Z,80.10
2024-02-24T08:33:49.896Z,79.79
2024-02-24T08:34:49.778Z,79.58
2024-02-24T08:35:49.746Z,79.65
2024-02-24T08:36:49.823Z,78.61
2024-02-24T08:37:49.658Z,79.24
2024-02-24T08:38:49.741Z,79.55
2024-02-24T08:39:49.648Z,80.06
2024-02-24T08:40:49.649Z,79.55
2024-02-24T08:41:49.687Z,78.82
2024-02-24T08:42:49.593Z,79.24
2024-02-24T08:43:49.657Z,79.03
2024-02-24T08:44:49.639Z,79.44
2024-02-24T08:45:49.554Z,78.92
2024-02-24T08:46:49.555Z,79.24
2024-02-24T08:47:49.688Z,80.75
2024-02-24T08:48:49.553Z,79.78
2024-02-24T08:49:49.567Z,79.78
2024-02-24T08:50:49.565Z,79.74
2024-02-24T08:51:49.477Z,78.40
2024-02-24T08:52:50.707Z,77.88
2024-02-24T08:53:49.469Z,77.05
2024-02-24T08:54:49.471Z,77.47
2024-02-24T08:55:49.421Z,77.88
2024-02-24T08:56:49.565Z,76.32
2024-02-24T08:57:49.406Z,77.15
2024-02-24T08:58:49.389Z,77.26
2024-02-24T08:59:49.502Z,77.67
2024-02-24T09:00:49.374Z,77.74
2024-02-24T09:01:49.339Z,77.50
2024-02-24T09:02:49.531Z,75.95
2024-02-24T09:03:49.402Z,75.95
2024-02-24T09:04:49.361Z,75.95
2024-02-24T09:05:49.396Z,76.36
2024-02-24T09:06:49.520Z,75.29
2024-02-24T09:07:49.407Z,75.81
2024-02-24T09:08:49.279Z,75.15
2024-02-24T09:09:49.244Z,74.02
2024-02-24T09:10:49.290Z,74.84
2024-02-24T09:11:49.281Z,74.63
2024-02-24T09:12:49.204Z,75.95
2024-02-24T09:13:49.191Z,74.88
2024-02-24T09:14:49.298Z,72.47
2024-02-24T09:15:49.151Z,71.54
2024-02-24T09:16:49.187Z,71.33
2024-02-24T09:17:49.265Z,72.54
2024-02-24T09:18:49.199Z,70.37
2024-02-24T09:19:49.159Z,70.47
2024-02-24T09:20:49.199Z,71.51
2024-02-24T09:21:49.086Z,70.68
2024-02-24T09:22:49.097Z,71.30
2024-02-24T09:23:49.091Z,69.58
2024-02-24T09:24:49.079Z,70.30
2024-02-24T09:25:49.028Z,71.71
2024-02-24T09:26:49.114Z,71.71
2024-02-24T09:27:49.089Z,72.64
2024-02-24T09:28:49.022Z,70.99
2024-02-24T09:29:49.088Z,70.54
2024-02-24T09:30:48.961Z,71.06
2024-02-24T09:31:48.945Z,70.34
2024-02-24T09:32:49.105Z,71.23
2024-02-24T09:33:48.994Z,70.07
2024-02-24T09:34:49.067Z,68.42
2024-02-24T09:35:49.007Z,68.45
2024-02-24T09:36:48.924Z,68.69
2024-02-24T09:37:48.883Z,69.54
2024-02-24T09:38:48.974Z,70.89
2024-02-24T09:39:48.834Z,71.78
2024-02-24T09:40:48.831Z,71.47
2024-02-24T09:41:48.929Z,72.13
2024-02-24T09:42:48.834Z,70.86
2024-02-24T09:43:48.842Z,67.77
2024-02-24T09:44:48.969Z,67.49
2024-02-24T09:45:48.826Z,69.35
2024-02-24T09:46:48.800Z,68.90
2024-02-24T09:47:48.783Z,68.87
2024-02-24T09:48:48.805Z,67.33
2024-02-24T09:49:48.761Z,67.94
2024-02-24T09:50:48.864Z,68.32
2024-02-24T09:51:48.681Z,67.81
2024-02-24T09:52:48.708Z,67.78
2024-02-24T09:53:48.759Z,66.82
2024-02-24T09:54:48.629Z,65.89
2024-02-24T09:55:48.709Z,67.00
2024-02-24T09:56:48.691Z,65.45
2024-02-24T09:57:48.604Z,64.32
2024-02-24T09:58:48.584Z,65.97
2024-02-24T09:59:48.677Z,66.07
2024-02-24T10:00:48.631Z,65.45
2024-02-24T10:01:48.572Z,65.56
2024-02-24T10:02:48.613Z,65.83
2024-02-24T10:03:48.570Z,65.70
2024-02-24T10:04:48.558Z,65.47
2024-02-24T10:05:48.704Z,64.10
2024-02-24T10:06:48.489Z,64.28
2024-02-24T10:07:48.508Z,64.28
2024-02-24T10:08:48.533Z,63.84
2024-02-24T10:09:48.439Z,63.73
2024-02-24T10:10:48.466Z,63.09
2024-02-24T10:11:48.632Z,62.27
2024-02-24T10:12:48.386Z,63.17
2024-02-24T10:13:48.638Z,63.88
2024-02-24T10:14:48.453Z,62.96
2024-02-24T10:15:48.411Z,63.17
2024-02-24T10:16:48.328Z,61.80
2024-02-24T10:17:48.436Z,61.50
2024-02-24T10:18:48.397Z,62.21
2024-02-24T10:19:48.373Z,63.03
2024-02-24T10:20:48.337Z,62.39
2024-02-24T10:21:48.295Z,61.70
2024-02-24T10:22:48.356Z,62.29
2024-02-24T10:23:48.293Z,60.65
2024-02-24T10:24:48.238Z,60.65
2024-02-24T10:25:48.246Z,60.01
2024-02-24T10:26:48.270Z,60.72
2024-02-24T10:27:48.232Z,60.01
2024-02-24T10:28:48.202Z,61.03
2024-02-24T10:29:48.260Z,61.13
2024-02-24T10:30:48.175Z,59.70
2024-02-24T10:31:48.244Z,59.88
2024-02-24T10:32:48.207Z,59.19
2024-02-24T10:33:48.252Z,59.80
2024-02-24T10:34:48.226Z,60.31
2024-02-24T10:35:50.046Z,60.01
2024-02-24T10:36:48.150Z,59.88
2024-02-24T10:38:03.485Z,60.49
2024-02-24T10:38:50.902Z,59.64
2024-02-24T10:39:48.087Z,58.91
2024-02-24T10:40:48.104Z,59.31
2024-02-24T10:41:48.062Z,59.23
2024-02-24T10:42:48.006Z,58.42
2024-02-24T10:43:48.010Z,59.85
2024-02-24T10:44:48.023Z,59.75
2024-02-24T10:45:47.965Z,60.46
2024-02-24T10:46:47.967Z,59.82
2024-02-24T10:47:49.008Z,60.30
2024-02-24T10:48:48.074Z,58.98
2024-02-24T10:49:48.022Z,59.31
2024-02-24T10:50:48.010Z,58.60
2024-02-24T10:51:47.924Z,58.50
2024-02-24T10:52:47.880Z,57.50
2024-02-24T10:53:47.886Z,58.34
2024-02-24T10:54:47.883Z,58.93
2024-02-24T10:55:47.839Z,58.52
2024-02-24T10:56:47.837Z,55.94
2024-02-24T10:57:50.349Z,57.78
2024-02-24T10:58:47.778Z,56.66
2024-02-24T10:59:47.855Z,58.26
2024-02-24T11:00:47.800Z,58.54
2024-02-24T11:01:47.735Z,57.52
2024-02-24T11:02:47.837Z,55.76
2024-02-24T11:03:47.828Z,55.56
2024-02-24T11:04:47.749Z,54.44
2024-02-24T11:05:47.833Z,53.92
2024-02-24T11:06:47.828Z,55.43
2024-02-24T11:07:47.747Z,55.43
2024-02-24T11:08:47.730Z,55.53
2024-02-24T11:09:47.653Z,55.15
2024-02-24T11:10:47.612Z,54.85
2024-02-24T11:11:47.655Z,55.94
2024-02-24T11:12:47.646Z,57.17
2024-02-24T11:13:59.521Z,56.32
2024-02-24T11:14:47.636Z,54.90
2024-02-24T11:15:47.556Z,54.46
2024-02-24T11:16:47.542Z,54.46
2024-02-24T11:17:47.704Z,56.16
2024-02-24T11:18:47.653Z,54.92
2024-02-24T11:19:47.657Z,55.83
2024-02-24T11:20:47.571Z,55.60
2024-02-24T11:21:47.481Z,55.40
2024-02-24T11:22:47.456Z,54.39
2024-02-24T11:23:47.480Z,53.98
2024-02-24T11:24:47.495Z,54.26
2024-02-24T11:25:47.427Z,54.26
2024-02-24T11:26:47.498Z,53.93
2024-02-24T11:27:47.397Z,53.55
2024-02-24T11:28:47.380Z,53.55
2024-02-24T11:29:47.404Z,54.57
2024-02-24T11:30:47.385Z,55.48
2024-02-24T11:31:47.349Z,54.87
2024-02-24T11:32:47.403Z,54.97
2024-02-24T11:33:47.453Z,53.75
2024-02-24T11:34:47.503Z,54.87
2024-02-24T11:35:47.352Z,55.25
2024-02-24T11:36:47.298Z,54.13
2024-02-24T11:37:47.275Z,54.84
2024-02-24T11:38:47.298Z,54.41
2024-02-24T11:39:47.274Z,53.70
2024-02-24T11:40:47.201Z,53.70
2024-02-24T11:41:47.262Z,54.00
2024-02-24T11:42:47.177Z,53.70
2024-02-24T11:43:47.229Z,54.21
2024-02-24T11:44:47.932Z,52.86
2024-02-24T11:45:47.153Z,52.86
2024-02-24T11:46:47.131Z,52.36
2024-02-24T11:47:47.222Z,52.23
2024-02-24T11:48:47.299Z,52.03
2024-02-24T11:49:47.415Z,50.99
2024-02-24T11:50:47.130Z,50.18
2024-02-24T11:51:47.091Z,50.00
2024-02-24T11:52:47.082Z,50.10
2024-02-24T11:53:47.076Z,50.20
2024-02-24T11:54:47.064Z,49.98
2024-02-24T11:55:47.009Z,50.38
2024-02-24T11:56:47.023Z,49.47
2024-02-24T11:57:47.056Z,49.77
2024-02-24T11:58:46.999Z,48.99
2024-02-24T11:59:46.966Z,50.51
2024-02-24T12:00:47.085Z,50.40
2024-02-24T12:01:46.959Z,49.59
2024-02-24T12:02:46.991Z,51.01
2024-02-24T12:03:46.930Z,50.40
2024-02-24T12:04:46.957Z,49.62
2024-02-24T12:05:46.951Z,50.40
2024-02-24T12:06:46.955Z,50.81
2024-02-24T12:07:46.851Z,50.40
2024-02-24T12:08:46.876Z,50.40
2024-02-24T12:09:47.894Z,50.00
2024-02-24T12:10:46.842Z,49.98
2024-02-24T12:11:46.869Z,49.77
2024-02-24T12:12:46.804Z,48.33
2024-02-24T12:13:46.783Z,49.62
2024-02-24T12:14:46.773Z,49.52
2024-02-24T12:15:46.771Z,48.39
2024-02-24T12:16:47.338Z,47.07
2024-02-24T12:17:46.951Z,49.60
2024-02-24T12:18:46.854Z,47.67
2024-02-24T12:19:46.868Z,46.95
2024-02-24T12:20:46.702Z,46.95
2024-02-24T12:21:46.672Z,46.64
2024-02-24T12:22:54.344Z,47.15
2024-02-24T12:23:46.704Z,47.05
2024-02-24T12:24:46.655Z,47.15
2024-02-24T12:25:46.642Z,47.78
2024-02-24T12:26:46.608Z,46.06
2024-02-24T12:27:46.600Z,46.87
2024-02-24T12:28:46.788Z,47.60
2024-02-24T12:29:46.654Z,47.11
2024-02-24T12:30:46.523Z,47.85
2024-02-24T12:31:46.532Z,49.47
2024-02-24T12:32:46.627Z,50.68
2024-02-24T12:33:47.099Z,49.95
2024-02-24T12:34:46.689Z,49.32
2024-02-24T12:35:46.497Z,48.94
2024-02-24T12:36:46.514Z,49.34
2024-02-24T12:37:46.454Z,50.56
2024-02-24T12:38:46.571Z,50.56
2024-02-24T12:39:46.440Z,48.94
2024-02-24T12:40:46.411Z,48.74
2024-02-24T12:41:46.428Z,48.43
2024-02-24T12:42:46.401Z,49.75
2024-02-24T12:43:46.402Z,48.94
2024-02-24T12:44:46.604Z,49.04
2024-02-24T12:45:46.363Z,48.31
2024-02-24T12:46:46.352Z,47.19
2024-02-24T12:47:46.458Z,48.41
2024-02-24T12:48:46.707Z,48.00
2024-02-24T12:49:46.392Z,48.00
2024-02-24T12:50:46.319Z,46.89
2024-02-24T12:51:46.269Z,48.31
2024-02-24T12:52:46.254Z,49.11